Time;durP1;ratioP1;P1;durP2;ratioP2;P2;SDS_P1;SDS_P2;PMS_P1;PMS_P2;Temp;Humidity;BMP_temperature;BMP_pressure;BME280_temperature;BME280_humidity;BME280_pressure;Samples;Min_cycle;Max_cycle;Signal;HPM_P1;HPM_P2
2023/11/26 00:01:53;;;;;;;15.35;8.35;;;6.00;99.90;;;;;;5066251;28;20016;-75
2023/11/26 00:04:22;;;;;;;16.02;6.97;;;6.00;99.90;;;;;;5062865;28;20111;-77
2023/11/26 00:06:50;;;;;;;16.10;7.13;;;6.00;99.90;;;;;;5068008;28;20494;-77
2023/11/26 00:09:15;;;;;;;20.48;8.30;;;5.90;99.90;;;;;;5064544;28;20024;-74
2023/11/26 00:11:42;;;;;;;20.40;7.97;;;5.90;99.90;;;;;;5065596;28;20523;-76
2023/11/26 00:14:08;;;;;;;12.45;7.05;;;5.90;99.90;;;;;;5054856;28;20021;-76
2023/11/26 00:16:38;;;;;;;15.60;7.15;;;5.90;99.90;;;;;;5057997;28;20027;-75
2023/11/26 00:19:04;;;;;;;17.40;5.97;;;5.90;99.90;;;;;;5067248;28;20474;-76
2023/11/26 00:21:32;;;;;;;17.48;6.82;;;5.80;99.90;;;;;;5058706;28;20391;-75
2023/11/26 00:24:00;;;;;;;15.05;6.30;;;5.80;99.90;;;;;;5064284;28;20024;-75
2023/11/26 00:26:29;;;;;;;18.38;6.32;;;5.80;99.90;;;;;;5055694;28;20041;-74
2023/11/26 00:28:55;;;;;;;13.45;6.00;;;5.80;99.90;;;;;;5066722;28;20064;-75
2023/11/26 00:31:21;;;;;;;14.57;5.57;;;5.80;99.90;;;;;;5061042;28;20450;-74
2023/11/26 00:33:48;;;;;;;13.32;5.75;;;5.80;99.90;;;;;;5066401;28;20386;-73
2023/11/26 00:36:18;;;;;;;14.52;5.65;;;5.70;99.90;;;;;;5066138;28;20025;-75
2023/11/26 00:38:45;;;;;;;18.23;5.30;;;5.70;99.90;;;;;;5061550;28;20033;-75
2023/11/26 00:41:11;;;;;;;15.63;6.22;;;5.70;99.90;;;;;;5065492;28;20016;-74
2023/11/26 00:43:37;;;;;;;16.42;6.82;;;5.70;99.90;;;;;;5070491;28;20489;-73
2023/11/26 00:46:03;;;;;;;11.80;5.57;;;5.70;99.90;;;;;;5068348;28;20025;-73
2023/11/26 00:48:28;;;;;;;22.75;8.00;;;5.70;99.90;;;;;;5062007;28;20505;-74
2023/11/26 00:50:54;;;;;;;26.77;9.73;;;5.70;99.90;;;;;;5060493;28;20016;-74
2023/11/26 00:53:21;;;;;;;22.05;8.85;;;5.60;99.90;;;;;;5062239;28;20124;-74
2023/11/26 00:55:47;;;;;;;23.02;9.93;;;5.70;99.90;;;;;;5062497;28;20025;-74
2023/11/26 00:58:13;;;;;;;20.35;9.15;;;5.60;99.90;;;;;;5053971;28;20041;-74
2023/11/26 01:00:39;;;;;;;35.08;17.55;;;5.60;99.90;;;;;;5059284;28;20099;-74
2023/11/26 01:03:06;;;;;;;58.47;28.40;;;5.60;99.90;;;;;;5055929;28;20770;-73
2023/11/26 01:05:31;;;;;;;45.53;24.02;;;5.60;99.90;;;;;;5060154;28;20024;-73
2023/11/26 01:07:57;;;;;;;49.95;22.73;;;5.60;99.90;;;;;;5059537;28;20025;-73
2023/11/26 01:10:23;;;;;;;48.05;22.42;;;5.60;99.90;;;;;;5068123;28;20082;-74
2023/11/26 01:12:49;;;;;;;40.60;17.95;;;5.60;99.90;;;;;;5060697;28;20024;-75
2023/11/26 01:15:15;;;;;;;39.47;18.58;;;5.60;99.90;;;;;;5058452;28;20044;-74
2023/11/26 01:17:42;;;;;;;32.70;17.90;;;5.60;99.90;;;;;;5056859;28;20035;-74
2023/11/26 01:20:10;;;;;;;30.77;16.38;;;5.60;99.90;;;;;;5058445;28;20410;-74
2023/11/26 01:22:36;;;;;;;32.50;14.70;;;5.50;99.90;;;;;;5055149;28;20483;-74
2023/11/26 01:25:03;;;;;;;25.38;13.70;;;5.50;99.90;;;;;;5059869;28;20683;-74
2023/11/26 01:27:29;;;;;;;23.55;12.98;;;5.50;99.90;;;;;;5067022;28;20028;-74
2023/11/26 01:29:56;;;;;;;26.60;13.88;;;5.60;99.90;;;;;;5061262;28;20023;-74
2023/11/26 01:32:22;;;;;;;28.20;14.07;;;5.50;99.90;;;;;;5063060;28;20044;-74
2023/11/26 01:34:47;;;;;;;30.65;14.35;;;5.50;99.90;;;;;;5056129;28;20411;-74
2023/11/26 01:37:13;;;;;;;26.55;11.55;;;5.50;99.90;;;;;;5056854;28;20069;-74
2023/11/26 01:39:39;;;;;;;27.23;11.20;;;5.50;99.90;;;;;;5061480;28;20017;-74
2023/11/26 01:42:05;;;;;;;23.33;10.63;;;5.40;99.90;;;;;;5059180;28;20089;-75
2023/11/26 01:44:31;;;;;;;28.10;11.02;;;5.40;99.90;;;;;;5061080;28;20025;-74
2023/11/26 01:47:05;;;;;;;26.08;11.68;;;5.40;99.90;;;;;;5062393;28;20028;-74
2023/11/26 01:49:31;;;;;;;27.80;10.82;;;5.40;99.90;;;;;;5055605;28;20028;-74
2023/11/26 01:52:02;;;;;;;26.95;10.07;;;5.40;99.90;;;;;;5060505;28;20036;-74
2023/11/26 01:54:34;;;;;;;22.17;10.45;;;5.40;99.90;;;;;;5068116;28;20135;-74
2023/11/26 01:57:01;;;;;;;25.45;9.75;;;5.40;99.90;;;;;;5062441;28;20023;-75
2023/11/26 01:59:27;;;;;;;24.27;9.55;;;5.30;99.90;;;;;;5064742;28;20440;-74
2023/11/26 02:01:56;;;;;;;23.80;10.25;;;5.30;99.90;;;;;;5061129;28;20059;-73
2023/11/26 02:04:22;;;;;;;26.85;10.30;;;5.30;99.90;;;;;;5058770;28;20502;-74
2023/11/26 02:06:53;;;;;;;25.35;9.52;;;5.40;99.90;;;;;;5062942;28;20060;-75
2023/11/26 02:09:19;;;;;;;25.97;10.33;;;5.40;99.90;;;;;;5065563;28;20016;-74
2023/11/26 02:11:49;;;;;;;23.05;10.05;;;5.40;99.90;;;;;;5062162;28;20017;-74
2023/11/26 02:14:15;;;;;;;18.83;9.65;;;5.40;99.90;;;;;;5064057;28;20028;-74
2023/11/26 02:16:46;;;;;;;18.05;8.05;;;5.40;99.90;;;;;;5067104;28;20027;-74
2023/11/26 02:19:35;;;;;;;24.70;9.88;;;5.40;99.90;;;;;;5063892;28;20025;-74
2023/11/26 02:22:01;;;;;;;27.33;8.32;;;5.40;99.90;;;;;;5065609;28;20023;-73
2023/11/26 02:24:31;;;;;;;18.40;8.05;;;5.40;99.90;;;;;;5061761;28;20513;-74
2023/11/26 02:26:57;;;;;;;21.13;7.78;;;5.40;99.90;;;;;;5058285;28;20043;-74
2023/11/26 02:29:23;;;;;;;22.20;8.65;;;5.50;99.90;;;;;;5062230;28;20522;-75
2023/11/26 02:31:49;;;;;;;24.00;8.27;;;5.40;99.90;;;;;;5067483;28;20013;-74
2023/11/26 02:34:15;;;;;;;26.70;9.10;;;5.40;99.90;;;;;;5063708;28;20481;-75
2023/11/26 02:36:41;;;;;;;22.85;10.25;;;5.40;99.90;;;;;;5062741;28;20037;-73
2023/11/26 02:39:07;;;;;;;26.27;10.75;;;5.40;99.90;;;;;;5059051;28;20024;-74
2023/11/26 02:41:35;;;;;;;31.13;12.43;;;5.40;99.90;;;;;;5062175;28;20021;-74
2023/11/26 02:44:01;;;;;;;41.38;14.60;;;5.40;99.90;;;;;;5062338;28;20541;-74
2023/11/26 02:46:27;;;;;;;39.10;14.30;;;5.30;99.90;;;;;;5066489;28;20017;-74
2023/11/26 02:48:53;;;;;;;34.33;13.98;;;5.30;99.90;;;;;;5060661;28;20033;-75
2023/11/26 02:51:19;;;;;;;23.20;11.63;;;5.40;99.90;;;;;;5060301;28;20035;-74
2023/11/26 02:53:45;;;;;;;31.55;12.43;;;5.40;99.90;;;;;;5061691;28;20107;-74
2023/11/26 02:56:12;;;;;;;26.60;12.63;;;5.40;99.90;;;;;;5068657;28;20024;-73
2023/11/26 02:58:41;;;;;;;31.20;10.82;;;5.40;99.90;;;;;;5059819;28;20475;-74
2023/11/26 03:01:08;;;;;;;23.27;10.10;;;5.40;99.90;;;;;;5070861;28;20028;-74
2023/11/26 03:03:33;;;;;;;28.23;10.18;;;5.50;99.90;;;;;;5069397;28;20173;-74
2023/11/26 03:05:59;;;;;;;23.13;9.75;;;5.50;99.90;;;;;;5068902;28;20104;-74
2023/11/26 03:08:38;;;;;;;27.50;11.32;;;5.50;99.90;;;;;;5064765;28;20068;-75
2023/11/26 03:13:48;;;;;;;21.05;10.82;;;5.60;99.90;;;;;;5060934;28;20120;-74
2023/11/26 03:16:15;;;;;;;27.98;10.43;;;5.60;99.90;;;;;;5068717;28;20106;-75
2023/11/26 03:18:41;;;;;;;23.70;9.75;;;5.60;99.90;;;;;;5064185;28;20031;-74
2023/11/26 03:21:10;;;;;;;24.33;10.25;;;5.60;99.90;;;;;;5072486;28;20039;-75
2023/11/26 03:23:36;;;;;;;24.25;9.20;;;5.70;99.90;;;;;;5058519;28;20395;-74
2023/11/26 03:26:02;;;;;;;22.75;9.77;;;5.70;99.90;;;;;;5059922;28;20086;-74
2023/11/26 03:28:28;;;;;;;22.05;8.40;;;5.70;99.90;;;;;;5060526;28;20036;-74
2023/11/26 03:30:56;;;;;;;25.83;8.70;;;5.70;99.90;;;;;;5061394;28;20479;-74
2023/11/26 03:33:22;;;;;;;20.70;8.98;;;5.70;99.90;;;;;;5062658;28;20479;-74
2023/11/26 03:35:49;;;;;;;26.48;9.32;;;5.70;99.90;;;;;;5063900;28;20082;-73
2023/11/26 03:38:14;;;;;;;26.95;10.02;;;5.70;99.90;;;;;;5064019;28;20033;-74
2023/11/26 03:40:40;;;;;;;24.13;9.05;;;5.70;99.90;;;;;;5065693;28;20032;-73
2023/11/26 03:43:07;;;;;;;27.20;9.95;;;5.70;99.90;;;;;;5067280;28;20452;-74
2023/11/26 03:45:33;;;;;;;27.42;9.82;;;5.70;99.90;;;;;;5068280;28;20033;-74
2023/11/26 03:47:59;;;;;;;26.23;9.77;;;5.70;99.90;;;;;;5066132;28;20064;-74
2023/11/26 03:50:25;;;;;;;22.27;9.27;;;5.70;99.90;;;;;;5063386;28;20095;-74
2023/11/26 03:52:51;;;;;;;23.33;10.45;;;5.70;99.90;;;;;;5062896;28;20028;-74
2023/11/26 03:55:17;;;;;;;21.75;9.55;;;5.70;99.90;;;;;;5061163;28;20013;-74
2023/11/26 03:57:43;;;;;;;18.88;9.30;;;5.70;99.90;;;;;;5063733;28;20591;-74
2023/11/26 04:00:10;;;;;;;23.63;10.07;;;5.70;99.90;;;;;;5063767;28;20040;-74
2023/11/26 04:02:36;;;;;;;24.83;10.48;;;5.70;99.90;;;;;;5056323;28;20441;-74
2023/11/26 04:05:03;;;;;;;16.15;9.25;;;5.70;99.90;;;;;;5064814;28;20024;-74
2023/11/26 04:07:30;;;;;;;20.65;9.15;;;5.70;99.90;;;;;;5057511;28;20094;-73
2023/11/26 04:09:55;;;;;;;23.27;9.40;;;5.70;99.90;;;;;;5074213;28;20053;-74
2023/11/26 04:12:21;;;;;;;22.58;10.02;;;5.70;99.90;;;;;;5062158;28;20025;-73
2023/11/26 04:14:58;;;;;;;24.10;10.48;;;5.70;99.90;;;;;;5064786;28;20048;-73
2023/11/26 04:17:25;;;;;;;25.90;9.88;;;5.70;99.90;;;;;;5060560;28;20033;-74
2023/11/26 04:19:52;;;;;;;27.27;10.70;;;5.70;99.90;;;;;;5063797;28;20021;-74
2023/11/26 04:22:25;;;;;;;21.95;10.75;;;5.70;99.90;;;;;;5065940;28;20029;-74
2023/11/26 04:24:51;;;;;;;16.30;9.43;;;5.70;99.90;;;;;;5067346;28;20024;-74
2023/11/26 04:27:18;;;;;;;26.58;10.80;;;5.80;99.90;;;;;;5061221;28;20020;-74
2023/11/26 04:29:46;;;;;;;21.35;9.50;;;5.70;99.90;;;;;;5056958;28;20100;-74
2023/11/26 04:32:13;;;;;;;23.42;9.45;;;5.80;99.90;;;;;;5056683;28;20360;-73
2023/11/26 04:34:38;;;;;;;20.58;10.43;;;5.80;99.90;;;;;;5068234;28;20501;-74
2023/11/26 04:37:23;;;;;;;20.45;9.07;;;5.80;99.90;;;;;;5067381;28;20024;-73
2023/11/26 04:39:49;;;;;;;22.90;9.30;;;5.70;99.90;;;;;;5063947;28;20467;-73
2023/11/26 04:42:16;;;;;;;27.60;10.43;;;5.70;99.90;;;;;;5065855;28;20013;-73
2023/11/26 04:44:42;;;;;;;26.40;11.05;;;5.80;99.90;;;;;;5059054;28;20024;-75
2023/11/26 04:47:08;;;;;;;28.58;10.70;;;5.80;99.90;;;;;;5062652;28;20024;-73
2023/11/26 04:49:34;;;;;;;17.92;10.05;;;5.80;99.90;;;;;;5069284;28;20398;-74
2023/11/26 04:52:00;;;;;;;24.73;11.35;;;5.80;99.90;;;;;;5065082;28;20028;-73
2023/11/26 04:54:29;;;;;;;24.48;12.38;;;5.80;99.90;;;;;;5059862;28;20047;-73
2023/11/26 04:56:54;;;;;;;22.90;11.02;;;5.80;99.90;;;;;;5057291;28;20031;-73
2023/11/26 04:59:20;;;;;;;24.25;11.07;;;5.90;99.90;;;;;;5064725;28;20107;-73
2023/11/26 05:01:48;;;;;;;31.42;11.27;;;5.90;99.90;;;;;;5060747;28;20036;-73
2023/11/26 05:04:15;;;;;;;32.17;11.73;;;5.90;99.90;;;;;;5065947;28;20377;-73
2023/11/26 05:06:44;;;;;;;21.35;11.48;;;6.00;99.90;;;;;;5059372;28;20033;-73
2023/11/26 05:09:11;;;;;;;31.85;12.65;;;6.00;99.90;;;;;;5059219;28;20166;-74
2023/11/26 05:11:40;;;;;;;25.13;12.25;;;6.00;99.90;;;;;;5060857;28;20017;-76
2023/11/26 05:14:06;;;;;;;32.13;12.98;;;6.00;99.90;;;;;;5067532;28;20021;-73
2023/11/26 05:16:32;;;;;;;27.77;11.85;;;6.00;99.90;;;;;;5054449;28;20150;-73
2023/11/26 05:18:57;;;;;;;28.30;11.45;;;6.00;99.90;;;;;;5074366;28;20024;-74
2023/11/26 05:21:23;;;;;;;30.55;11.93;;;6.10;99.90;;;;;;5060562;28;20550;-74
2023/11/26 05:23:49;;;;;;;26.00;12.50;;;6.10;99.90;;;;;;5061527;28;20029;-73
2023/11/26 05:26:15;;;;;;;32.20;12.50;;;6.10;99.90;;;;;;5058888;28;20017;-73
2023/11/26 05:28:41;;;;;;;26.23;12.32;;;6.10;99.90;;;;;;5064580;28;20028;-74
2023/11/26 05:31:07;;;;;;;27.42;12.65;;;6.00;99.90;;;;;;5066859;28;20058;-73
2023/11/26 05:33:32;;;;;;;23.33;12.38;;;6.10;99.90;;;;;;5060535;28;20027;-73
2023/11/26 05:35:58;;;;;;;30.02;11.88;;;6.10;99.90;;;;;;5064768;28;20032;-73
2023/11/26 05:38:25;;;;;;;23.63;12.07;;;6.10;99.90;;;;;;5057733;28;20052;-75
2023/11/26 05:40:50;;;;;;;29.67;12.95;;;6.10;99.90;;;;;;5065592;28;20052;-74
2023/11/26 05:43:16;;;;;;;33.13;12.55;;;6.10;99.90;;;;;;5058700;28;20095;-73
2023/11/26 05:45:44;;;;;;;31.60;13.95;;;6.10;99.90;;;;;;5063637;28;20016;-74
2023/11/26 05:48:10;;;;;;;28.15;12.82;;;6.10;99.90;;;;;;5050181;28;20029;-74
2023/11/26 05:50:36;;;;;;;28.95;10.90;;;6.20;99.90;;;;;;5061856;28;20079;-74
2023/11/26 05:53:02;;;;;;;33.17;11.82;;;6.20;99.90;;;;;;5061475;28;20029;-74
2023/11/26 05:55:28;;;;;;;23.92;11.88;;;6.20;99.90;;;;;;5068309;28;20036;-74
2023/11/26 05:57:55;;;;;;;29.58;11.20;;;6.20;99.90;;;;;;5060408;28;20037;-75
2023/11/26 06:00:21;;;;;;;32.60;11.77;;;6.30;99.90;;;;;;5067249;28;20531;-74
2023/11/26 06:02:50;;;;;;;21.48;11.63;;;6.20;99.90;;;;;;5070642;28;20021;-74
2023/11/26 06:05:16;;;;;;;24.33;10.30;;;6.20;99.90;;;;;;5060297;28;20024;-74
2023/11/26 06:07:42;;;;;;;31.50;10.00;;;6.20;99.90;;;;;;5065497;28;20077;-74
2023/11/26 06:10:09;;;;;;;29.08;12.10;;;6.20;99.90;;;;;;5056346;28;20029;-75
2023/11/26 06:12:35;;;;;;;24.95;11.60;;;6.10;99.90;;;;;;5066910;28;20024;-75
2023/11/26 06:15:01;;;;;;;21.05;10.00;;;6.10;99.90;;;;;;5060991;28;20058;-75
2023/11/26 06:17:27;;;;;;;31.33;12.45;;;6.20;99.90;;;;;;5065518;28;20028;-78
2023/11/26 06:19:53;;;;;;;35.88;10.93;;;6.20;99.90;;;;;;5060708;28;20094;-77
2023/11/26 06:22:18;;;;;;;23.02;9.65;;;6.20;99.90;;;;;;5060103;28;20016;-75
2023/11/26 06:24:45;;;;;;;26.90;10.20;;;6.10;99.90;;;;;;5060978;28;20032;-75
2023/11/26 06:27:11;;;;;;;25.60;11.70;;;6.20;99.90;;;;;;5058504;28;20013;-75
2023/11/26 06:29:37;;;;;;;37.10;13.77;;;6.20;99.90;;;;;;5068488;28;20036;-74
2023/11/26 06:32:04;;;;;;;37.08;16.70;;;6.20;99.90;;;;;;5071000;28;20513;-77
2023/11/26 06:34:31;;;;;;;39.35;17.45;;;6.30;99.90;;;;;;5060617;28;20056;-75
2023/11/26 06:36:58;;;;;;;40.30;17.92;;;6.30;99.90;;;;;;5058068;28;20049;-75
2023/11/26 06:39:25;;;;;;;37.83;17.95;;;6.20;99.90;;;;;;5067000;28;20024;-75
2023/11/26 06:41:51;;;;;;;39.20;16.35;;;6.20;99.90;;;;;;5069586;28;20490;-75
2023/11/26 06:44:17;;;;;;;34.22;16.65;;;6.20;99.90;;;;;;5072581;28;20386;-75
2023/11/26 06:46:42;;;;;;;40.15;18.55;;;6.20;99.90;;;;;;5069428;28;20020;-79
2023/11/26 06:49:08;;;;;;;37.20;18.50;;;6.20;99.90;;;;;;5061454;28;20066;-75
2023/11/26 06:51:34;;;;;;;42.47;19.05;;;6.20;99.90;;;;;;5068318;28;20045;-75
2023/11/26 06:53:59;;;;;;;45.78;20.48;;;6.20;99.90;;;;;;5064248;28;22017;-74
2023/11/26 06:56:25;;;;;;;48.28;19.83;;;6.20;99.90;;;;;;5059693;28;20025;-75
2023/11/26 06:58:51;;;;;;;39.58;19.63;;;6.20;99.90;;;;;;5059253;28;20040;-75
2023/11/26 07:01:17;;;;;;;41.88;21.63;;;6.20;99.90;;;;;;5063599;28;20074;-75
2023/11/26 07:03:44;;;;;;;42.88;21.50;;;6.10;99.90;;;;;;5064627;28;20055;-76
2023/11/26 07:06:11;;;;;;;47.17;23.52;;;6.10;99.90;;;;;;5076711;28;20199;-75
2023/11/26 07:08:38;;;;;;;45.00;22.17;;;6.10;99.90;;;;;;5067767;28;20036;-76
2023/11/26 07:11:15;;;;;;;43.53;21.90;;;6.10;99.90;;;;;;5061703;28;20046;-76
2023/11/26 07:13:41;;;;;;;43.28;22.17;;;6.20;99.90;;;;;;5062548;28;20115;-77
2023/11/26 07:16:07;;;;;;;45.95;25.98;;;6.20;99.90;;;;;;5065144;28;20028;-76
2023/11/26 07:18:33;;;;;;;36.97;19.60;;;6.20;99.90;;;;;;5061117;28;20025;-75
2023/11/26 07:21:00;;;;;;;39.58;20.95;;;6.30;99.90;;;;;;5072235;28;20081;-76
2023/11/26 07:23:25;;;;;;;41.28;20.73;;;6.30;99.90;;;;;;5065228;28;20424;-76
2023/11/26 07:25:52;;;;;;;37.15;20.10;;;6.30;99.90;;;;;;5059873;28;20025;-75
2023/11/26 07:28:18;;;;;;;54.70;22.45;;;6.40;99.90;;;;;;5061955;28;20025;-76
2023/11/26 07:30:44;;;;;;;43.50;21.10;;;6.40;99.90;;;;;;5061400;28;20111;-76
2023/11/26 07:33:10;;;;;;;35.13;18.80;;;6.40;99.90;;;;;;5059217;28;20021;-76
2023/11/26 07:35:37;;;;;;;39.08;20.73;;;6.40;99.90;;;;;;5068086;28;20037;-75
2023/11/26 07:38:04;;;;;;;41.72;22.67;;;6.40;99.90;;;;;;5060791;28;20066;-77
2023/11/26 07:40:33;;;;;;;45.22;23.92;;;6.50;99.90;;;;;;5066119;28;20017;-75
2023/11/26 07:42:59;;;;;;;44.28;21.25;;;6.50;99.90;;;;;;5068809;28;20025;-76
2023/11/26 07:45:31;;;;;;;39.28;20.50;;;6.50;99.90;;;;;;5061933;28;20024;-78
2023/11/26 07:47:59;;;;;;;51.75;23.92;;;6.50;99.90;;;;;;5066023;28;20470;-76
2023/11/26 07:50:24;;;;;;;49.33;22.95;;;6.50;99.90;;;;;;5060963;28;20135;-76
2023/11/26 07:52:50;;;;;;;47.33;22.40;;;6.50;99.90;;;;;;5060847;28;20487;-75
2023/11/26 07:55:16;;;;;;;44.50;21.23;;;6.50;99.90;;;;;;5074162;28;20035;-75
2023/11/26 07:57:42;;;;;;;51.40;24.20;;;6.50;99.90;;;;;;5076999;28;20032;-75
2023/11/26 08:00:14;;;;;;;53.95;23.10;;;6.50;99.90;;;;;;5067749;28;20056;-75
2023/11/26 08:02:41;;;;;;;56.83;22.83;;;6.60;99.90;;;;;;5063796;28;20211;-75
2023/11/26 08:05:08;;;;;;;48.40;22.40;;;6.50;99.90;;;;;;5066953;28;20522;-76
2023/11/26 08:07:36;;;;;;;43.78;22.10;;;6.50;99.90;;;;;;5060402;28;20043;-75
2023/11/26 08:10:10;;;;;;;53.53;23.65;;;6.60;99.90;;;;;;5070429;28;20016;-76
2023/11/26 08:12:38;;;;;;;51.72;23.73;;;6.60;99.90;;;;;;5059377;28;20502;-76
2023/11/26 08:15:12;;;;;;;53.40;23.70;;;6.60;99.90;;;;;;5064559;28;20037;-76
2023/11/26 08:17:39;;;;;;;52.00;23.42;;;6.60;99.90;;;;;;5066082;28;20016;-76
2023/11/26 08:20:10;;;;;;;47.88;21.85;;;6.60;99.90;;;;;;5052834;28;20103;-76
2023/11/26 08:22:40;;;;;;;53.50;24.40;;;6.60;99.90;;;;;;5059531;28;20052;-77
2023/11/26 08:25:12;;;;;;;48.28;23.13;;;6.70;99.90;;;;;;5056876;28;20494;-76
2023/11/26 08:27:45;;;;;;;50.08;23.27;;;6.70;99.90;;;;;;5057381;28;20032;-76
2023/11/26 08:30:30;;;;;;;48.00;24.70;;;6.80;99.90;;;;;;5057666;28;20100;-76
2023/11/26 08:33:02;;;;;;;49.53;22.75;;;6.90;99.90;;;;;;5059534;28;20032;-75
2023/11/26 08:35:29;;;;;;;42.72;20.20;;;6.90;99.90;;;;;;5060574;28;20511;-76
2023/11/26 08:37:56;;;;;;;48.33;22.38;;;6.90;99.90;;;;;;5078629;28;20025;-76
2023/11/26 08:40:33;;;;;;;53.13;23.20;;;7.00;99.90;;;;;;5068697;28;20017;-75
2023/11/26 08:43:02;;;;;;;46.83;22.48;;;7.00;99.90;;;;;;5066064;28;20491;-75
2023/11/26 08:45:28;;;;;;;44.58;21.90;;;7.10;99.90;;;;;;5060506;28;20126;-75
2023/11/26 08:47:55;;;;;;;39.05;20.42;;;7.10;99.90;;;;;;5065066;28;20024;-76
2023/11/26 08:50:22;;;;;;;41.15;20.02;;;7.10;99.90;;;;;;5061138;28;20028;-76
2023/11/26 08:52:48;;;;;;;45.45;20.13;;;7.10;99.90;;;;;;5060752;28;20064;-75
2023/11/26 08:55:14;;;;;;;40.25;21.67;;;7.10;99.90;;;;;;5063481;28;20040;-75
2023/11/26 08:57:40;;;;;;;41.75;19.85;;;7.20;99.90;;;;;;5065130;28;20025;-75
2023/11/26 09:00:10;;;;;;;52.42;22.95;;;7.20;99.90;;;;;;5064502;28;20052;-75
2023/11/26 09:02:38;;;;;;;44.92;21.17;;;7.20;99.90;;;;;;5059217;28;20028;-75
2023/11/26 09:05:08;;;;;;;41.83;20.77;;;7.20;99.90;;;;;;5070176;28;20112;-75
2023/11/26 09:07:52;;;;;;;45.80;21.23;;;7.30;99.90;;;;;;5061951;28;20037;-75
2023/11/26 09:10:19;;;;;;;41.90;20.70;;;7.40;99.90;;;;;;5064134;28;20445;-75
2023/11/26 09:12:45;;;;;;;40.38;19.58;;;7.40;99.90;;;;;;5061109;28;20104;-75
2023/11/26 09:15:11;;;;;;;36.47;17.58;;;7.50;99.90;;;;;;5053366;28;20096;-76
2023/11/26 09:17:41;;;;;;;47.40;19.75;;;7.50;99.90;;;;;;5059795;28;20036;-75
2023/11/26 09:20:15;;;;;;;44.80;20.77;;;7.50;99.90;;;;;;5067026;28;20016;-75
2023/11/26 09:22:41;;;;;;;40.83;18.60;;;7.60;99.90;;;;;;5061593;28;20091;-76
2023/11/26 09:25:08;;;;;;;33.75;17.20;;;7.60;99.90;;;;;;5071282;28;20486;-76
2023/11/26 09:27:35;;;;;;;37.72;17.83;;;7.80;99.90;;;;;;5059453;28;20055;-75
2023/11/26 09:30:01;;;;;;;38.40;18.00;;;7.80;99.90;;;;;;5070780;28;20116;-75
2023/11/26 09:32:27;;;;;;;37.78;17.20;;;7.90;99.90;;;;;;5064242;28;20028;-75
2023/11/26 09:34:53;;;;;;;46.28;19.10;;;7.90;99.90;;;;;;5067808;28;20024;-75
2023/11/26 09:37:19;;;;;;;39.00;18.30;;;7.90;99.90;;;;;;5058152;28;20487;-75
2023/11/26 09:39:45;;;;;;;34.53;17.40;;;7.90;99.90;;;;;;5060448;28;20028;-75
2023/11/26 09:42:11;;;;;;;32.40;16.38;;;7.90;99.90;;;;;;5056487;28;20029;-75
2023/11/26 09:44:37;;;;;;;27.80;15.90;;;8.00;99.90;;;;;;5064644;28;20028;-76
2023/11/26 09:47:03;;;;;;;34.78;16.13;;;7.90;99.90;;;;;;5075005;28;20024;-75
2023/11/26 09:49:29;;;;;;;30.38;15.40;;;7.90;99.90;;;;;;5056147;28;20013;-75
2023/11/26 09:51:58;;;;;;;36.75;17.23;;;7.90;99.90;;;;;;5061872;28;20023;-75
2023/11/26 09:54:25;;;;;;;45.17;17.70;;;7.90;99.90;;;;;;5075436;28;20061;-75
2023/11/26 09:56:55;;;;;;;33.25;18.23;;;7.90;99.90;;;;;;5065468;28;20028;-75
2023/11/26 09:59:29;;;;;;;43.85;19.45;;;7.90;99.90;;;;;;5058944;28;20479;-75
2023/11/26 10:01:55;;;;;;;48.63;22.13;;;7.90;99.90;;;;;;5031603;28;20024;-77
2023/11/26 10:04:22;;;;;;;43.13;20.23;;;7.90;99.90;;;;;;5050004;28;20471;-75
2023/11/26 10:06:52;;;;;;;47.75;22.77;;;7.90;99.90;;;;;;5053374;28;20029;-75
2023/11/26 10:09:18;;;;;;;36.67;19.95;;;7.90;99.90;;;;;;5053826;28;20089;-75
2023/11/26 10:11:45;;;;;;;43.42;22.38;;;8.00;99.90;;;;;;5055972;28;20392;-77
2023/11/26 10:14:15;;;;;;;42.72;20.48;;;8.00;99.90;;;;;;5050649;28;20028;-77
2023/11/26 10:16:42;;;;;;;46.40;22.67;;;8.00;99.90;;;;;;5053485;28;20055;-76
2023/11/26 10:19:27;;;;;;;46.63;22.90;;;8.10;99.90;;;;;;5055023;28;20529;-76
2023/11/26 10:21:57;;;;;;;46.05;21.67;;;8.10;99.90;;;;;;5057299;28;20043;-75
2023/11/26 10:24:27;;;;;;;53.60;23.52;;;8.10;99.90;;;;;;5058420;28;20025;-76
2023/11/26 10:26:54;;;;;;;48.20;25.35;;;8.10;99.90;;;;;;5053223;28;20051;-76
2023/11/26 10:29:28;;;;;;;38.60;23.10;;;8.10;99.90;;;;;;5056220;28;20020;-75
2023/11/26 10:32:03;;;;;;;43.25;22.73;;;8.10;99.90;;;;;;5058705;28;20030;-75
2023/11/26 10:34:31;;;;;;;42.58;23.10;;;8.20;99.90;;;;;;5061960;28;20111;-75
2023/11/26 10:36:57;;;;;;;53.85;24.58;;;8.30;99.90;;;;;;5056984;28;20043;-76
2023/11/26 10:39:24;;;;;;;47.60;23.20;;;8.30;99.90;;;;;;5053645;28;20031;-75
2023/11/26 10:41:50;;;;;;;42.67;24.20;;;8.30;99.90;;;;;;5050539;28;20464;-75
2023/11/26 10:44:17;;;;;;;43.08;23.63;;;8.30;99.90;;;;;;5054702;28;20017;-75
2023/11/26 10:46:51;;;;;;;43.63;23.02;;;8.40;99.90;;;;;;5054310;28;20413;-75
2023/11/26 10:49:45;;;;;;;43.63;22.65;;;8.30;99.90;;;;;;5060680;28;20075;-75
2023/11/26 10:52:28;;;;;;;35.67;21.08;;;8.40;99.90;;;;;;5058729;28;20098;-75
2023/11/26 10:55:10;;;;;;;45.60;22.55;;;8.40;99.90;;;;;;5060389;28;20024;-75
2023/11/26 10:57:43;;;;;;;46.92;23.80;;;8.50;99.90;;;;;;5057882;28;20049;-75
2023/11/26 11:00:14;;;;;;;45.22;21.95;;;8.50;99.90;;;;;;5056021;28;20032;-75
2023/11/26 11:02:41;;;;;;;42.45;22.75;;;8.50;99.90;;;;;;5057799;28;20025;-75
2023/11/26 11:05:09;;;;;;;41.20;22.95;;;8.50;99.90;;;;;;5062006;28;20368;-76
2023/11/26 11:07:35;;;;;;;46.53;24.65;;;8.60;99.90;;;;;;5056402;28;20033;-75
2023/11/26 11:10:26;;;;;;;38.78;21.75;;;8.50;99.90;;;;;;5061844;28;20032;-75
2023/11/26 11:12:54;;;;;;;38.20;21.70;;;8.60;99.90;;;;;;5062086;28;20112;-75
2023/11/26 11:15:23;;;;;;;40.42;23.83;;;8.60;99.90;;;;;;5057493;28;20028;-76
2023/11/26 11:17:49;;;;;;;36.83;21.42;;;8.60;99.90;;;;;;5058784;28;20033;-75
2023/11/26 11:20:14;;;;;;;40.17;21.75;;;8.60;99.90;;;;;;5055881;28;20029;-75
2023/11/26 11:22:45;;;;;;;33.28;21.45;;;8.60;99.90;;;;;;5056224;28;20144;-76
2023/11/26 11:25:13;;;;;;;36.25;19.90;;;8.60;99.90;;;;;;5061718;28;20067;-75
2023/11/26 11:27:58;;;;;;;41.13;20.75;;;8.70;99.90;;;;;;5063344;28;20028;-75
2023/11/26 11:30:39;;;;;;;32.22;19.52;;;8.70;99.90;;;;;;5064661;28;20037;-75
2023/11/26 11:33:09;;;;;;;39.63;21.83;;;8.70;99.90;;;;;;5068337;28;20029;-75
2023/11/26 11:35:41;;;;;;;32.90;19.00;;;8.70;99.90;;;;;;5059074;28;20032;-77
2023/11/26 11:38:09;;;;;;;32.83;20.07;;;8.80;99.90;;;;;;5058657;28;20044;-75
2023/11/26 11:41:13;;;;;;;34.58;20.73;;;8.80;99.90;;;;;;5061193;28;20487;-75
2023/11/26 11:43:41;;;;;;;34.60;21.08;;;8.80;99.90;;;;;;5040974;28;20087;-75
2023/11/26 11:46:28;;;;;;;31.00;20.10;;;8.80;99.90;;;;;;5054711;28;20028;-75
2023/11/26 11:48:57;;;;;;;31.73;20.48;;;8.80;99.90;;;;;;5057675;28;20109;-78
2023/11/26 11:51:30;;;;;;;35.35;19.75;;;8.80;99.90;;;;;;5067480;28;20024;-75
2023/11/26 11:54:11;;;;;;;39.22;20.23;;;8.80;99.90;;;;;;5058107;28;20346;-75
2023/11/26 11:56:37;;;;;;;33.35;20.00;;;8.90;99.90;;;;;;4150725;28;10000261;-75
2023/11/26 11:59:03;;;;;;;35.70;21.20;;;8.80;99.90;;;;;;5037209;28;20175;-77
2023/11/26 12:01:30;;;;;;;35.47;21.50;;;8.80;99.90;;;;;;5041959;28;20024;-75
2023/11/26 12:04:03;;;;;;;32.03;20.27;;;8.90;99.90;;;;;;5038603;28;20171;-75
2023/11/26 12:06:33;;;;;;;32.80;19.55;;;8.90;99.90;;;;;;5035987;28;20028;-78
2023/11/26 12:09:01;;;;;;;45.88;19.63;;;8.90;99.90;;;;;;5038965;28;20095;-75
2023/11/26 12:11:27;;;;;;;31.02;18.15;;;8.90;99.90;;;;;;5036484;28;20491;-75
2023/11/26 12:13:55;;;;;;;35.22;19.40;;;8.90;99.90;;;;;;5041660;28;20067;-75
2023/11/26 12:16:22;;;;;;;37.47;21.75;;;8.80;99.90;;;;;;5038378;28;20104;-76
2023/11/26 12:18:57;;;;;;;36.40;21.30;;;8.80;99.90;;;;;;5041780;28;20032;-75
2023/11/26 12:21:23;;;;;;;41.17;22.33;;;8.80;99.90;;;;;;5036899;28;20022;-75
2023/11/26 12:23:50;;;;;;;38.42;22.73;;;8.70;99.90;;;;;;5039158;28;20590;-75
2023/11/26 12:26:16;;;;;;;42.95;22.67;;;8.80;99.90;;;;;;5038229;28;20104;-75
2023/11/26 12:28:48;;;;;;;45.50;23.05;;;8.70;99.90;;;;;;5037619;28;20029;-75
2023/11/26 12:31:15;;;;;;;40.35;24.05;;;8.80;99.90;;;;;;5029864;28;20025;-76
2023/11/26 12:33:45;;;;;;;43.33;24.73;;;8.80;99.90;;;;;;5035928;28;20045;-75
2023/11/26 12:36:13;;;;;;;45.03;23.45;;;8.80;99.90;;;;;;5036929;28;20037;-76
2023/11/26 12:38:41;;;;;;;42.15;23.35;;;8.80;99.90;;;;;;5037545;28;20025;-75
2023/11/26 12:41:08;;;;;;;39.03;23.25;;;8.80;99.90;;;;;;5043410;28;20542;-75
2023/11/26 12:43:34;;;;;;;44.75;21.98;;;8.80;99.90;;;;;;5035039;28;20028;-76
2023/11/26 12:46:15;;;;;;;44.03;22.40;;;8.70;99.90;;;;;;5040421;28;20060;-75